PROFILE

 METAR AND TAF INFORMATION
ADDS - METARS form results

(0358 UTC 25 April 2019)
http://aviationweather.gov/metar/data/
 
LFOB 250330Z AUTO 13010KT 9999 -RA FEW020/// SCT034/// BKN043/// ///TCU 10/10 Q0999 TEMPO 16015G25KT 4000 RA BKN012 BKN030TCU
LFOB 250300Z AUTO 12010KT 9999 -RADZ BKN037 BKN046 OVC054 10/09 Q0999 TEMPO 16015G25KT 4000 RA BKN012 BKN030TCU
TAF LFOB 242300Z 2500/2524 16010KT 9999 SCT040 TEMPO 2500/2518 16015G25KT 4000 RA BKN012 BKN030TCU PROB40 TEMPO 2513/2518 VRB20G35KT 2000 TSRA BKN030CB 

 AIRPORT MAP

 RUNWAY INFORMATION
Runway 04 Runway length 3625 ft Runway width 98 ft
Runway elevation 332 ft Runway displaced threshold 0 ft Runway heading 42
Runway 22 Runway length 3625 ft Runway width 98 ft
Runway elevation 359 ft Runway displaced threshold 0 ft Runway heading 222
Runway 13 Runway length 7972 ft Runway width 148 ft
Runway elevation 352 ft Runway displaced threshold 0 ft Runway heading 125
Runway 31 Runway length 7972 ft Runway width 148 ft
Runway elevation 297 ft Runway displaced threshold 0 ft Runway heading 305
Runway 13R Runway length 0 ft Runway width 0 ft
Runway elevation 359 ft Runway displaced threshold 0 ft Runway heading 0
Runway 31L Runway length 0 ft Runway width 0 ft
Runway elevation 359 ft Runway displaced threshold 0 ft Runway heading 0

 AIRPORT FREQUENCIES
Type APP Name BEAUVAIS A Frequency 119.9 MHZ
Type ATIS Name BEAUVAIS A Frequency 118.375 MHZ
Type TWR Name BEAUVAIS T Frequency 121.4 MHZ

 AIRPORT NEAR NAVIGATION AIDS
Type VOR Name Beauvais Frequency 115900 KHZ